sensor_id;sensor_type;location;lat;lon;timestamp;pressure;altitude;pressure_sealevel;temperature;humidity
8280;BME280;8335;42.646;23.380;2024-03-08T00:00:04;142997.31;;;5.65;100.00
8280;BME280;8335;42.646;23.380;2024-03-08T00:02:35;142988.63;;;5.61;100.00
8280;BME280;8335;42.646;23.380;2024-03-08T00:05:03;142991.09;;;5.62;100.00
8280;BME280;8335;42.646;23.380;2024-03-08T00:07:30;143003.47;;;5.67;100.00
8280;BME280;8335;42.646;23.380;2024-03-08T00:09:56;143005.94;;;5.68;100.00
8280;BME280;8335;42.646;23.380;2024-03-08T00:12:25;143015.88;;;5.72;100.00
8280;BME280;8335;42.646;23.380;2024-03-08T00:14:52;143023.28;;;5.75;100.00
8280;BME280;8335;42.646;23.380;2024-03-08T00:17:20;142996.03;;;5.64;100.00
8280;BME280;8335;42.646;23.380;2024-03-08T00:19:48;142986.16;;;5.60;100.00
8280;BME280;8335;42.646;23.380;2024-03-08T00:22:15;142996.03;;;5.64;100.00
8280;BME280;8335;42.646;23.380;2024-03-08T00:24:41;143012.13;;;5.71;100.00
8280;BME280;8335;42.646;23.380;2024-03-08T00:27:08;142983.69;;;5.59;100.00
8280;BME280;8335;42.646;23.380;2024-03-08T00:29:36;143024.50;;;5.76;100.00
8280;BME280;8335;42.646;23.380;2024-03-08T00:32:04;143031.97;;;5.79;100.00
8280;BME280;8335;42.646;23.380;2024-03-08T00:34:35;143023.28;;;5.75;100.00
8280;BME280;8335;42.646;23.380;2024-03-08T00:37:02;143010.88;;;5.70;100.00
8280;BME280;8335;42.646;23.380;2024-03-08T00:39:28;143012.13;;;5.71;100.00
8280;BME280;8335;42.646;23.380;2024-03-08T00:41:55;143010.88;;;5.70;100.00
8280;BME280;8335;42.646;23.380;2024-03-08T00:44:22;143005.94;;;5.68;100.00
8280;BME280;8335;42.646;23.380;2024-03-08T00:46:50;143002.25;;;5.67;100.00
8280;BME280;8335;42.646;23.380;2024-03-08T00:49:16;142972.50;;;5.55;100.00
8280;BME280;8335;42.646;23.380;2024-03-08T00:51:43;142952.72;;;5.46;100.00
8280;BME280;8335;42.646;23.380;2024-03-08T00:54:10;142946.53;;;5.44;100.00
8280;BME280;8335;42.646;23.380;2024-03-08T00:56:37;142947.78;;;5.44;100.00
8280;BME280;8335;42.646;23.380;2024-03-08T00:59:04;142950.25;;;5.45;100.00
8280;BME280;8335;42.646;23.380;2024-03-08T01:01:31;142958.88;;;5.49;100.00
8280;BME280;8335;42.646;23.380;2024-03-08T01:03:59;142961.38;;;5.50;100.00
8280;BME280;8335;42.646;23.380;2024-03-08T01:06:26;142971.28;;;5.54;100.00
8280;BME280;8335;42.646;23.380;2024-03-08T01:08:53;142971.28;;;5.54;100.00
8280;BME280;8335;42.646;23.380;2024-03-08T01:11:19;142981.19;;;5.58;100.00
8280;BME280;8335;42.646;23.380;2024-03-08T01:13:46;142970.06;;;5.53;100.00
8280;BME280;8335;42.646;23.380;2024-03-08T01:16:15;142965.09;;;5.51;100.00
8280;BME280;8335;42.646;23.380;2024-03-08T01:18:42;142962.66;;;5.50;100.00
8280;BME280;8335;42.646;23.380;2024-03-08T01:21:10;142947.78;;;5.44;100.00
8280;BME280;8335;42.646;23.380;2024-03-08T01:23:36;142930.44;;;5.37;100.00
8280;BME280;8335;42.646;23.380;2024-03-08T01:26:03;142926.69;;;5.36;100.00
8280;BME280;8335;42.646;23.380;2024-03-08T01:28:30;142918.06;;;5.32;100.00
8280;BME280;8335;42.646;23.380;2024-03-08T01:30:57;142918.06;;;5.32;100.00
8280;BME280;8335;42.646;23.380;2024-03-08T01:33:24;142901.97;;;5.25;100.00
8280;BME280;8335;42.646;23.380;2024-03-08T01:35:51;142918.06;;;5.32;100.00
8280;BME280;8335;42.646;23.380;2024-03-08T01:38:22;142905.66;;;5.27;100.00
8280;BME280;8335;42.646;23.380;2024-03-08T01:40:49;142906.91;;;5.28;100.00
8280;BME280;8335;42.646;23.380;2024-03-08T01:43:20;142892.09;;;5.21;100.00
8280;BME280;8335;42.646;23.380;2024-03-08T01:45:47;142897.03;;;5.23;100.00
8280;BME280;8335;42.646;23.380;2024-03-08T01:48:14;142904.44;;;5.27;100.00
8280;BME280;8335;42.646;23.380;2024-03-08T01:50:42;142901.97;;;5.25;100.00
8280;BME280;8335;42.646;23.380;2024-03-08T01:53:09;142903.19;;;5.26;100.00
8280;BME280;8335;42.646;23.380;2024-03-08T01:55:39;142911.88;;;5.30;100.00
8280;BME280;8335;42.646;23.380;2024-03-08T01:58:06;142920.53;;;5.33;100.00
8280;BME280;8335;42.646;23.380;2024-03-08T02:00:34;142921.75;;;5.34;100.00
8280;BME280;8335;42.646;23.380;2024-03-08T02:03:02;142929.22;;;5.37;100.00
8280;BME280;8335;42.646;23.380;2024-03-08T02:05:29;142934.16;;;5.39;100.00
8280;BME280;8335;42.646;23.380;2024-03-08T02:07:56;142925.47;;;5.35;100.00
8280;BME280;8335;42.646;23.380;2024-03-08T02:10:23;142945.31;;;5.43;100.00
8280;BME280;8335;42.646;23.380;2024-03-08T02:12:51;142953.94;;;5.47;100.00
8280;BME280;8335;42.646;23.380;2024-03-08T02:15:18;142963.88;;;5.51;100.00
8280;BME280;8335;42.646;23.380;2024-03-08T02:17:45;142966.34;;;5.52;100.00
8280;BME280;8335;42.646;23.380;2024-03-08T02:20:11;142968.81;;;5.53;100.00
8280;BME280;8335;42.646;23.380;2024-03-08T02:22:40;142979.97;;;5.58;100.00
8280;BME280;8335;42.646;23.380;2024-03-08T02:25:08;142979.97;;;5.58;100.00
8280;BME280;8335;42.646;23.380;2024-03-08T02:27:35;142987.38;;;5.61;100.00
8280;BME280;8335;42.646;23.380;2024-03-08T02:30:02;142993.56;;;5.63;100.00
8280;BME280;8335;42.646;23.380;2024-03-08T02:32:30;143003.47;;;5.67;100.00
8280;BME280;8335;42.646;23.380;2024-03-08T02:34:58;143009.66;;;5.70;100.00
8280;BME280;8335;42.646;23.380;2024-03-08T02:37:25;143015.88;;;5.72;100.00
8280;BME280;8335;42.646;23.380;2024-03-08T02:39:55;143019.56;;;5.74;100.00
8280;BME280;8335;42.646;23.380;2024-03-08T02:42:21;143017.09;;;5.73;100.00
8280;BME280;8335;42.646;23.380;2024-03-08T02:44:48;143026.97;;;5.77;100.00
8280;BME280;8335;42.646;23.380;2024-03-08T02:47:15;143036.91;;;5.81;100.00
8280;BME280;8335;42.646;23.380;2024-03-08T02:49:41;143039.38;;;5.82;100.00
8280;BME280;8335;42.646;23.380;2024-03-08T02:52:08;143055.47;;;5.89;100.00
8280;BME280;8335;42.646;23.380;2024-03-08T02:54:35;143056.72;;;5.89;100.00
8280;BME280;8335;42.646;23.380;2024-03-08T02:57:03;143062.94;;;5.92;100.00
8280;BME280;8335;42.646;23.380;2024-03-08T02:59:32;143066.69;;;5.93;100.00
8280;BME280;8335;42.646;23.380;2024-03-08T03:01:59;143069.16;;;5.94;100.00
8280;BME280;8335;42.646;23.380;2024-03-08T03:04:26;143041.84;;;5.83;100.00
8280;BME280;8335;42.646;23.380;2024-03-08T03:06:53;143061.69;;;5.91;100.00
8280;BME280;8335;42.646;23.380;2024-03-08T03:09:20;143062.94;;;5.92;100.00
8280;BME280;8335;42.646;23.380;2024-03-08T03:11:49;143064.16;;;5.92;100.00
8280;BME280;8335;42.646;23.380;2024-03-08T03:14:17;143069.16;;;5.94;100.00
8280;BME280;8335;42.646;23.380;2024-03-08T03:16:44;143057.94;;;5.90;100.00
8280;BME280;8335;42.646;23.380;2024-03-08T03:19:11;143054.25;;;5.88;100.00
8280;BME280;8335;42.646;23.380;2024-03-08T03:21:37;143049.31;;;5.86;100.00
8280;BME280;8335;42.646;23.380;2024-03-08T03:24:05;143049.31;;;5.86;100.00
8280;BME280;8335;42.646;23.380;2024-03-08T03:26:35;143055.47;;;5.89;100.00
8280;BME280;8335;42.646;23.380;2024-03-08T03:29:04;143043.09;;;5.84;100.00
8280;BME280;8335;42.646;23.380;2024-03-08T03:31:32;143041.84;;;5.83;100.00
8280;BME280;8335;42.646;23.380;2024-03-08T03:33:59;143044.31;;;5.84;100.00
8280;BME280;8335;42.646;23.380;2024-03-08T03:36:28;143043.09;;;5.84;100.00
8280;BME280;8335;42.646;23.380;2024-03-08T03:38:55;143048.03;;;5.86;100.00
8280;BME280;8335;42.646;23.380;2024-03-08T03:41:30;143048.03;;;5.86;100.00
8280;BME280;8335;42.646;23.380;2024-03-08T03:43:57;143049.31;;;5.86;100.00
8280;BME280;8335;42.646;23.380;2024-03-08T03:46:24;143048.03;;;5.86;100.00
8280;BME280;8335;42.646;23.380;2024-03-08T03:48:53;143046.78;;;5.85;100.00
8280;BME280;8335;42.646;23.380;2024-03-08T03:51:20;143030.69;;;5.78;100.00
8280;BME280;8335;42.646;23.380;2024-03-08T03:53:47;143036.91;;;5.81;100.00
8280;BME280;8335;42.646;23.380;2024-03-08T03:56:14;143029.44;;;5.78;100.00
8280;BME280;8335;42.646;23.380;2024-03-08T03:58:41;143039.38;;;5.82;100.00
8280;BME280;8335;42.646;23.380;2024-03-08T04:01:08;143039.38;;;5.82;100.00
8280;BME280;8335;42.646;23.380;2024-03-08T04:03:36;143044.31;;;5.84;100.00
8280;BME280;8335;42.646;23.380;2024-03-08T04:06:04;143043.09;;;5.84;100.00
8280;BME280;8335;42.646;23.380;2024-03-08T04:08:31;143045.56;;;5.85;100.00
8280;BME280;8335;42.646;23.380;2024-03-08T04:11:00;143048.03;;;5.86;100.00
8280;BME280;8335;42.646;23.380;2024-03-08T04:13:26;143041.84;;;5.83;100.00
8280;BME280;8335;42.646;23.380;2024-03-08T04:15:53;143035.66;;;5.80;100.00
8280;BME280;8335;42.646;23.380;2024-03-08T04:18:20;143038.16;;;5.82;100.00
8280;BME280;8335;42.646;23.380;2024-03-08T04:20:47;143035.66;;;5.80;100.00
8280;BME280;8335;42.646;23.380;2024-03-08T04:23:15;143028.22;;;5.77;100.00
8280;BME280;8335;42.646;23.380;2024-03-08T04:25:43;143030.69;;;5.78;100.00
8280;BME280;8335;42.646;23.380;2024-03-08T04:28:09;143038.16;;;5.82;100.00
8280;BME280;8335;42.646;23.380;2024-03-08T04:30:37;143034.44;;;5.80;100.00
8280;BME280;8335;42.646;23.380;2024-03-08T04:33:04;143038.16;;;5.82;100.00
8280;BME280;8335;42.646;23.380;2024-03-08T04:35:31;143038.16;;;5.82;100.00
8280;BME280;8335;42.646;23.380;2024-03-08T04:37:58;143001.00;;;5.66;100.00
8280;BME280;8335;42.646;23.380;2024-03-08T04:40:26;143039.38;;;5.82;100.00
8280;BME280;8335;42.646;23.380;2024-03-08T04:42:53;143034.44;;;5.80;100.00
8280;BME280;8335;42.646;23.380;2024-03-08T04:45:19;143043.09;;;5.84;100.00
8280;BME280;8335;42.646;23.380;2024-03-08T04:47:47;143044.31;;;5.84;100.00
8280;BME280;8335;42.646;23.380;2024-03-08T04:50:13;143046.78;;;5.85;100.00
8280;BME280;8335;42.646;23.380;2024-03-08T04:52:40;143049.31;;;5.86;100.00
8280;BME280;8335;42.646;23.380;2024-03-08T04:55:07;143053.00;;;5.88;100.00
8280;BME280;8335;42.646;23.380;2024-03-08T04:57:36;143051.78;;;5.87;100.00
8280;BME280;8335;42.646;23.380;2024-03-08T05:00:03;143043.09;;;5.84;100.00
8280;BME280;8335;42.646;23.380;2024-03-08T05:02:36;143043.09;;;5.84;100.00
8280;BME280;8335;42.646;23.380;2024-03-08T05:05:04;143040.63;;;5.83;100.00
8280;BME280;8335;42.646;23.380;2024-03-08T05:07:34;143030.69;;;5.78;100.00
8280;BME280;8335;42.646;23.380;2024-03-08T05:10:01;143031.97;;;5.79;100.00
8280;BME280;8335;42.646;23.380;2024-03-08T05:12:28;143026.97;;;5.77;100.00
8280;BME280;8335;42.646;23.380;2024-03-08T05:14:56;143030.69;;;5.78;100.00
8280;BME280;8335;42.646;23.380;2024-03-08T05:17:22;143024.50;;;5.76;100.00
8280;BME280;8335;42.646;23.380;2024-03-08T05:19:49;143017.09;;;5.73;100.00
8280;BME280;8335;42.646;23.380;2024-03-08T05:22:16;143009.66;;;5.70;100.00
8280;BME280;8335;42.646;23.380;2024-03-08T05:24:44;142986.16;;;5.60;100.00
8280;BME280;8335;42.646;23.380;2024-03-08T05:27:11;142958.88;;;5.49;100.00
8280;BME280;8335;42.646;23.380;2024-03-08T05:29:38;142963.88;;;5.51;100.00
8280;BME280;8335;42.646;23.380;2024-03-08T05:32:06;142960.13;;;5.49;100.00
8280;BME280;8335;42.646;23.380;2024-03-08T05:34:33;142963.88;;;5.51;100.00
8280;BME280;8335;42.646;23.380;2024-03-08T05:37:00;142968.81;;;5.53;100.00
8280;BME280;8335;42.646;23.380;2024-03-08T05:39:27;142926.69;;;5.36;100.00
8280;BME280;8335;42.646;23.380;2024-03-08T05:41:53;142913.13;;;5.30;100.00
8280;BME280;8335;42.646;23.380;2024-03-08T05:44:21;142885.88;;;5.19;100.00
8280;BME280;8335;42.646;23.380;2024-03-08T05:46:48;142861.16;;;5.09;100.00
8280;BME280;8335;42.646;23.380;2024-03-08T05:49:17;142846.28;;;5.03;100.00
8280;BME280;8335;42.646;23.380;2024-03-08T05:51:44;142822.81;;;4.93;100.00
8280;BME280;8335;42.646;23.380;2024-03-08T05:54:11;142794.34;;;4.81;100.00
8280;BME280;8335;42.646;23.380;2024-03-08T05:56:39;142754.75;;;4.65;100.00
8280;BME280;8335;42.646;23.380;2024-03-08T05:59:07;142732.47;;;4.56;100.00
8280;BME280;8335;42.646;23.380;2024-03-08T06:01:34;142679.28;;;4.34;100.00
8280;BME280;8335;42.646;23.380;2024-03-08T06:04:02;142561.81;;;3.85;100.00
8280;BME280;8335;42.646;23.380;2024-03-08T06:06:30;142629.81;;;4.13;100.00
8280;BME280;8335;42.646;23.380;2024-03-08T06:08:57;142637.25;;;4.17;100.00
8280;BME280;8335;42.646;23.380;2024-03-08T06:11:24;142654.56;;;4.24;100.00
8280;BME280;8335;42.646;23.380;2024-03-08T06:13:52;142640.97;;;4.18;100.00
8280;BME280;8335;42.646;23.380;2024-03-08T06:16:25;142654.56;;;4.24;100.00
8280;BME280;8335;42.646;23.380;2024-03-08T06:18:55;142664.44;;;4.28;100.00
8280;BME280;8335;42.646;23.380;2024-03-08T06:21:22;142650.88;;;4.22;100.00
8280;BME280;8335;42.646;23.380;2024-03-08T06:23:52;142660.75;;;4.26;100.00
8280;BME280;8335;42.646;23.380;2024-03-08T06:26:20;142647.13;;;4.21;100.00
8280;BME280;8335;42.646;23.380;2024-03-08T06:28:47;142652.09;;;4.23;100.00
8280;BME280;8335;42.646;23.380;2024-03-08T06:31:13;142652.09;;;4.23;100.00
8280;BME280;8335;42.646;23.380;2024-03-08T06:33:41;142654.56;;;4.24;100.00
8280;BME280;8335;42.646;23.380;2024-03-08T06:36:08;142684.25;;;4.36;100.00
8280;BME280;8335;42.646;23.380;2024-03-08T06:38:37;142697.84;;;4.41;100.00
8280;BME280;8335;42.646;23.380;2024-03-08T06:41:09;142713.91;;;4.48;100.00
8280;BME280;8335;42.646;23.380;2024-03-08T06:43:40;142739.91;;;4.59;100.00
8280;BME280;8335;42.646;23.380;2024-03-08T06:46:07;142774.53;;;4.73;100.00
8280;BME280;8335;42.646;23.380;2024-03-08T06:48:34;142794.34;;;4.81;100.00
8280;BME280;8335;42.646;23.380;2024-03-08T06:51:03;142817.81;;;4.91;100.00
8280;BME280;8335;42.646;23.380;2024-03-08T06:53:30;142767.09;;;4.70;100.00
8280;BME280;8335;42.646;23.380;2024-03-08T06:55:57;142859.91;;;5.08;100.00
8280;BME280;8335;42.646;23.380;2024-03-08T06:58:25;142908.16;;;5.28;100.00
8280;BME280;8335;42.646;23.380;2024-03-08T07:00:52;142955.19;;;5.47;100.00
8280;BME280;8335;42.646;23.380;2024-03-08T07:03:20;142983.69;;;5.59;100.00
8280;BME280;8335;42.646;23.380;2024-03-08T07:05:47;143001.00;;;5.66;100.00
8280;BME280;8335;42.646;23.380;2024-03-08T07:08:14;143002.25;;;5.67;100.00
8280;BME280;8335;42.646;23.380;2024-03-08T07:10:41;143030.69;;;5.78;100.00
8280;BME280;8335;42.646;23.380;2024-03-08T07:13:10;143044.31;;;5.84;100.00
8280;BME280;8335;42.646;23.380;2024-03-08T07:15:38;143049.31;;;5.86;100.00
8280;BME280;8335;42.646;23.380;2024-03-08T07:18:05;143044.31;;;5.84;100.00
8280;BME280;8335;42.646;23.380;2024-03-08T07:20:34;143065.41;;;5.93;100.00
8280;BME280;8335;42.646;23.380;2024-03-08T07:23:02;143055.47;;;5.89;100.00
8280;BME280;8335;42.646;23.380;2024-03-08T07:25:29;143062.94;;;5.92;100.00
8280;BME280;8335;42.646;23.380;2024-03-08T07:27:56;143067.91;;;5.94;100.00
8280;BME280;8335;42.646;23.380;2024-03-08T07:30:25;143093.91;;;6.04;100.00
8280;BME280;8335;42.646;23.380;2024-03-08T07:33:11;143117.41;;;6.14;100.00
8280;BME280;8335;42.646;23.380;2024-03-08T07:35:38;143127.34;;;6.18;100.00
8280;BME280;8335;42.646;23.380;2024-03-08T07:38:05;143147.16;;;6.26;100.00
8280;BME280;8335;42.646;23.380;2024-03-08T07:40:35;143179.38;;;6.40;100.00
8280;BME280;8335;42.646;23.380;2024-03-08T07:43:03;143193.00;;;6.45;100.00
8280;BME280;8335;42.646;23.380;2024-03-08T07:45:30;143221.47;;;6.57;100.00
8280;BME280;8335;42.646;23.380;2024-03-08T07:47:57;143248.75;;;6.68;100.00
8280;BME280;8335;42.646;23.380;2024-03-08T07:50:25;143279.75;;;6.81;98.20
8280;BME280;8335;42.646;23.380;2024-03-08T07:52:51;143248.75;;;6.68;98.93
8280;BME280;8335;42.646;23.380;2024-03-08T07:55:18;143237.59;;;6.63;98.98
8280;BME280;8335;42.646;23.380;2024-03-08T07:57:46;143240.09;;;6.65;100.00
8280;BME280;8335;42.646;23.380;2024-03-08T08:00:23;143251.22;;;6.69;100.00
8280;BME280;8335;42.646;23.380;2024-03-08T08:02:52;143284.69;;;6.83;100.00
8280;BME280;8335;42.646;23.380;2024-03-08T08:05:18;143323.09;;;6.99;100.00
8280;BME280;8335;42.646;23.380;2024-03-08T08:07:46;143342.91;;;7.07;100.00
8280;BME280;8335;42.646;23.380;2024-03-08T08:10:13;143333.03;;;7.03;100.00
8280;BME280;8335;42.646;23.380;2024-03-08T08:12:44;143362.78;;;7.15;100.00
8280;BME280;8335;42.646;23.380;2024-03-08T08:15:10;143408.63;;;7.34;100.00
8280;BME280;8335;42.646;23.380;2024-03-08T08:17:38;143440.88;;;7.47;98.32
8280;BME280;8335;42.646;23.380;2024-03-08T08:20:05;143502.91;;;7.72;97.96
8280;BME280;8335;42.646;23.380;2024-03-08T08:22:32;143542.56;;;7.89;97.50
8280;BME280;8335;42.646;23.380;2024-03-08T08:25:00;143638.06;;;8.28;95.31
8280;BME280;8335;42.646;23.380;2024-03-08T08:27:27;143675.38;;;8.43;92.85
8280;BME280;8335;42.646;23.380;2024-03-08T08:29:54;143670.38;;;8.41;90.86
8280;BME280;8335;42.646;23.380;2024-03-08T08:32:21;143696.47;;;8.52;90.35
8280;BME280;8335;42.646;23.380;2024-03-08T08:34:47;143731.22;;;8.66;91.10
8280;BME280;8335;42.646;23.380;2024-03-08T08:37:14;143753.56;;;8.75;89.55
8280;BME280;8335;42.646;23.380;2024-03-08T08:39:41;143816.88;;;9.01;89.77
8280;BME280;8335;42.646;23.380;2024-03-08T08:42:09;143869.03;;;9.23;88.58
8280;BME280;8335;42.646;23.380;2024-03-08T08:44:36;143903.81;;;9.37;87.82
8280;BME280;8335;42.646;23.380;2024-03-08T08:47:03;143942.28;;;9.53;85.83
8280;BME280;8335;42.646;23.380;2024-03-08T08:49:30;143993.22;;;9.74;84.75
8280;BME280;8335;42.646;23.380;2024-03-08T08:51:57;144067.75;;;10.04;83.99
8280;BME280;8335;42.646;23.380;2024-03-08T08:54:24;144124.94;;;10.28;83.84
8280;BME280;8335;42.646;23.380;2024-03-08T08:56:52;144197.03;;;10.57;81.07
8280;BME280;8335;42.646;23.380;2024-03-08T08:59:21;144250.53;;;10.79;80.79
8280;BME280;8335;42.646;23.380;2024-03-08T09:01:50;144331.34;;;11.12;77.82
8280;BME280;8335;42.646;23.380;2024-03-08T09:04:19;144452.00;;;11.62;77.35
8280;BME280;8335;42.646;23.380;2024-03-08T09:06:47;144554.09;;;12.03;74.22
8280;BME280;8335;42.646;23.380;2024-03-08T09:09:13;144639.97;;;12.38;73.49
8280;BME280;8335;42.646;23.380;2024-03-08T09:11:40;144755.81;;;12.86;71.33
8280;BME280;8335;42.646;23.380;2024-03-08T09:14:07;144821.78;;;13.13;63.53
8280;BME280;8335;42.646;23.380;2024-03-08T09:16:35;144866.69;;;13.31;61.22
8280;BME280;8335;42.646;23.380;2024-03-08T09:19:02;144905.31;;;13.47;62.96
8280;BME280;8335;42.646;23.380;2024-03-08T09:21:29;145019.97;;;13.94;59.71
8280;BME280;8335;42.646;23.380;2024-03-08T09:23:57;145212.03;;;14.72;58.89
8280;BME280;8335;42.646;23.380;2024-03-08T09:26:24;145335.53;;;15.23;55.98
8280;BME280;8335;42.646;23.380;2024-03-08T09:28:52;145440.41;;;15.65;54.66
8280;BME280;8335;42.646;23.380;2024-03-08T09:31:19;145486.56;;;15.84;51.33
8280;BME280;8335;42.646;23.380;2024-03-08T09:33:47;145512.78;;;15.95;51.53
8280;BME280;8335;42.646;23.380;2024-03-08T09:36:14;145514.03;;;15.95;49.39
8280;BME280;8335;42.646;23.380;2024-03-08T09:38:41;145489.03;;;15.85;47.87
8280;BME280;8335;42.646;23.380;2024-03-08T09:41:07;145487.78;;;15.85;48.63
8280;BME280;8335;42.646;23.380;2024-03-08T09:43:35;145532.75;;;16.03;49.10
8280;BME280;8335;42.646;23.380;2024-03-08T09:46:03;145568.97;;;16.18;48.33
8280;BME280;8335;42.646;23.380;2024-03-08T09:48:31;145695.13;;;16.69;46.53
8280;BME280;8335;42.646;23.380;2024-03-08T09:50:59;145638.88;;;16.46;46.96
8280;BME280;8335;42.646;23.380;2024-03-08T09:53:26;145469.06;;;15.77;47.65
8280;BME280;8335;42.646;23.380;2024-03-08T09:55:52;145274.38;;;14.98;49.11
8280;BME280;8335;42.646;23.380;2024-03-08T09:58:19;145122.16;;;14.36;50.87
8280;BME280;8335;42.646;23.380;2024-03-08T10:01:00;144971.34;;;13.74;53.15
8280;BME280;8335;42.646;23.380;2024-03-08T10:03:28;144859.19;;;13.28;53.58
8280;BME280;8335;42.646;23.380;2024-03-08T10:05:56;144764.50;;;12.89;55.17
8280;BME280;8335;42.646;23.380;2024-03-08T10:08:27;144677.31;;;12.54;55.94
8280;BME280;8335;42.646;23.380;2024-03-08T10:10:55;144652.44;;;12.44;56.07
8280;BME280;8335;42.646;23.380;2024-03-08T10:13:24;144628.75;;;12.34;56.64
8280;BME280;8335;42.646;23.380;2024-03-08T10:15:52;144531.69;;;11.94;56.97
8280;BME280;8335;42.646;23.380;2024-03-08T10:18:19;144484.34;;;11.75;58.50
8280;BME280;8335;42.646;23.380;2024-03-08T10:20:45;144440.78;;;11.57;59.02
8280;BME280;8335;42.646;23.380;2024-03-08T10:23:12;144463.22;;;11.66;59.82
8280;BME280;8335;42.646;23.380;2024-03-08T10:25:40;144537.91;;;11.97;60.68
8280;BME280;8335;42.646;23.380;2024-03-08T10:28:07;144564.06;;;12.07;59.80
8280;BME280;8335;42.646;23.380;2024-03-08T10:30:34;144575.25;;;12.12;60.09
8280;BME280;8335;42.646;23.380;2024-03-08T10:33:01;144465.69;;;11.67;59.78
8280;BME280;8335;42.646;23.380;2024-03-08T10:35:30;144455.72;;;11.63;59.75
8280;BME280;8335;42.646;23.380;2024-03-08T10:37:57;144473.16;;;11.70;59.38
8280;BME280;8335;42.646;23.380;2024-03-08T10:40:26;144476.91;;;11.72;59.42
8280;BME280;8335;42.646;23.380;2024-03-08T10:42:55;144456.97;;;11.64;59.78
8280;BME280;8335;42.646;23.380;2024-03-08T10:45:30;144432.09;;;11.53;59.73
8280;BME280;8335;42.646;23.380;2024-03-08T10:48:17;144428.38;;;11.52;58.69
8280;BME280;8335;42.646;23.380;2024-03-08T10:50:47;144474.38;;;11.71;55.91
8280;BME280;8335;42.646;23.380;2024-03-08T10:53:17;144559.06;;;12.05;54.90
8280;BME280;8335;42.646;23.380;2024-03-08T10:55:46;144773.22;;;12.93;54.53
8280;BME280;8335;42.646;23.380;2024-03-08T10:58:15;144834.25;;;13.18;57.04
8280;BME280;8335;42.646;23.380;2024-03-08T11:00:42;144897.84;;;13.44;54.41
8280;BME280;8335;42.646;23.380;2024-03-08T11:06:30;144860.44;;;13.29;54.44
8280;BME280;8335;42.646;23.380;2024-03-08T11:08:57;144764.50;;;12.89;56.49
8280;BME280;8335;42.646;23.380;2024-03-08T11:11:25;144593.91;;;12.20;57.86
8280;BME280;8335;42.646;23.380;2024-03-08T11:13:58;144506.78;;;11.84;59.31
8280;BME280;8335;42.646;23.380;2024-03-08T11:16:40;144432.09;;;11.53;59.91
8280;BME280;8335;42.646;23.380;2024-03-08T11:19:26;144439.53;;;11.56;60.33
8280;BME280;8335;42.646;23.380;2024-03-08T11:22:03;144524.22;;;11.91;60.42
8280;BME280;8335;42.646;23.380;2024-03-08T11:24:39;144653.69;;;12.44;59.61
8280;BME280;8335;42.646;23.380;2024-03-08T11:27:07;144621.31;;;12.31;57.41
8280;BME280;8335;42.646;23.380;2024-03-08T11:29:39;144520.47;;;11.90;59.35
8280;BME280;8335;42.646;23.380;2024-03-08T11:32:10;144484.34;;;11.75;60.24
8280;BME280;8335;42.646;23.380;2024-03-08T11:34:37;144491.81;;;11.78;60.37
8280;BME280;8335;42.646;23.380;2024-03-08T11:37:05;144524.22;;;11.91;61.87
8280;BME280;8335;42.646;23.380;2024-03-08T11:39:35;144569.03;;;12.09;60.39
8280;BME280;8335;42.646;23.380;2024-03-08T11:42:03;144598.91;;;12.22;59.67
8280;BME280;8335;42.646;23.380;2024-03-08T11:44:30;144574.00;;;12.11;57.12
8280;BME280;8335;42.646;23.380;2024-03-08T11:46:58;144565.31;;;12.08;56.94
8280;BME280;8335;42.646;23.380;2024-03-08T11:49:25;144592.66;;;12.19;55.64
8280;BME280;8335;42.646;23.380;2024-03-08T11:51:53;144662.38;;;12.48;56.15
8280;BME280;8335;42.646;23.380;2024-03-08T11:54:19;144710.94;;;12.67;55.81
8280;BME280;8335;42.646;23.380;2024-03-08T11:56:46;144720.94;;;12.72;56.79
8280;BME280;8335;42.646;23.380;2024-03-08T11:59:13;144693.53;;;12.60;55.70
8280;BME280;8335;42.646;23.380;2024-03-08T12:01:40;144627.53;;;12.33;55.52
8280;BME280;8335;42.646;23.380;2024-03-08T12:04:11;144550.38;;;12.02;57.94
8280;BME280;8335;42.646;23.380;2024-03-08T12:06:39;144522.97;;;11.91;57.35
8280;BME280;8335;42.646;23.380;2024-03-08T12:09:08;144509.28;;;11.85;58.49
8280;BME280;8335;42.646;23.380;2024-03-08T12:11:36;144489.31;;;11.77;58.67
8280;BME280;8335;42.646;23.380;2024-03-08T12:14:02;144498.09;;;11.80;58.34
8280;BME280;8335;42.646;23.380;2024-03-08T12:16:29;144527.94;;;11.93;57.16
8280;BME280;8335;42.646;23.380;2024-03-08T12:18:56;144478.16;;;11.72;58.77
8280;BME280;8335;42.646;23.380;2024-03-08T12:21:26;144430.88;;;11.53;58.04
8280;BME280;8335;42.646;23.380;2024-03-08T12:24:05;144378.63;;;11.32;59.29
8280;BME280;8335;42.646;23.380;2024-03-08T12:26:35;144374.88;;;11.30;58.84
8280;BME280;8335;42.646;23.380;2024-03-08T12:29:18;144297.75;;;10.98;59.56
8280;BME280;8335;42.646;23.380;2024-03-08T12:31:48;144266.66;;;10.86;60.05
8280;BME280;8335;42.646;23.380;2024-03-08T12:34:17;144241.81;;;10.75;60.99
8280;BME280;8335;42.646;23.380;2024-03-08T12:36:48;144243.06;;;10.76;60.84
8280;BME280;8335;42.646;23.380;2024-03-08T12:39:17;144226.88;;;10.69;61.65
8280;BME280;8335;42.646;23.380;2024-03-08T12:41:47;144189.59;;;10.54;61.20
8280;BME280;8335;42.646;23.380;2024-03-08T12:44:14;144141.13;;;10.34;61.72
8280;BME280;8335;42.646;23.380;2024-03-08T12:46:41;144066.50;;;10.04;62.61
8280;BME280;8335;42.646;23.380;2024-03-08T12:49:10;144056.56;;;10.00;63.13
8280;BME280;8335;42.646;23.380;2024-03-08T12:51:37;144075.25;;;10.07;63.51
8280;BME280;8335;42.646;23.380;2024-03-08T12:54:06;144081.44;;;10.10;63.18
8280;BME280;8335;42.646;23.380;2024-03-08T12:56:34;144046.63;;;9.96;64.12
8280;BME280;8335;42.646;23.380;2024-03-08T12:59:03;144082.66;;;10.10;64.11
8280;BME280;8335;42.646;23.380;2024-03-08T13:01:31;144046.63;;;9.96;63.84
8280;BME280;8335;42.646;23.380;2024-03-08T13:03:58;144025.53;;;9.87;65.22
8280;BME280;8335;42.646;23.380;2024-03-08T13:06:25;144026.78;;;9.87;65.11